createdAt,value
2022-09-04T00:01:17.449Z,89.44
2022-09-04T00:03:34.819Z,90.69
2022-09-04T00:05:51.691Z,92.00
2022-09-04T00:08:08.670Z,90.50
2022-09-04T00:10:26.980Z,90.46
2022-09-04T00:12:44.244Z,91.36
2022-09-04T00:15:01.500Z,90.93
2022-09-04T00:17:18.835Z,91.07
2022-09-04T00:19:36.877Z,90.83
2022-09-04T00:21:54.182Z,92.09
2022-09-04T00:24:11.205Z,91.95
2022-09-04T00:26:28.550Z,91.87
2022-09-04T00:28:45.859Z,92.56
2022-09-04T00:31:03.890Z,91.08
2022-09-04T00:33:20.987Z,90.00
2022-09-04T00:35:38.027Z,91.43
2022-09-04T00:37:56.977Z,89.93
2022-09-04T00:40:14.108Z,90.12
2022-09-04T00:42:31.388Z,90.99
2022-09-04T00:44:48.694Z,90.67
2022-09-04T00:47:08.875Z,91.56
2022-09-04T00:49:25.901Z,89.91
2022-09-04T00:51:42.897Z,89.28
2022-09-04T00:54:00.001Z,90.77
2022-09-04T00:56:17.301Z,91.00
2022-09-04T01:01:09.045Z,89.95
2022-09-04T01:03:27.508Z,89.86
2022-09-04T01:05:46.427Z,89.21
2022-09-04T01:08:03.713Z,89.64
2022-09-04T01:10:20.687Z,89.31
2022-09-04T01:12:37.627Z,89.96
2022-09-04T01:14:55.545Z,90.37
2022-09-04T01:17:12.652Z,89.59
2022-09-04T01:19:30.356Z,90.97
2022-09-04T01:21:47.336Z,91.08
2022-09-04T01:24:04.311Z,91.74
2022-09-04T01:26:22.688Z,91.18
2022-09-04T01:28:39.696Z,89.23
2022-09-04T01:30:57.126Z,91.53
2022-09-04T01:33:14.509Z,89.98
2022-09-04T01:35:31.475Z,90.80
2022-09-04T01:37:49.502Z,90.73
2022-09-04T01:40:06.871Z,90.56
2022-09-04T01:42:23.970Z,89.65
2022-09-04T01:44:41.053Z,89.54
2022-09-04T01:46:59.054Z,90.58
2022-09-04T01:49:16.027Z,90.24
2022-09-04T01:51:34.324Z,89.54
2022-09-04T01:53:51.221Z,88.41
2022-09-04T01:56:09.641Z,89.13
2022-09-04T01:58:26.648Z,90.52
2022-09-04T02:00:44.072Z,90.96
2022-09-04T02:03:04.414Z,88.51
2022-09-04T02:05:21.352Z,89.32
2022-09-04T02:07:38.410Z,89.59
2022-09-04T02:09:55.445Z,90.85
2022-09-04T02:12:12.518Z,90.56
2022-09-04T02:14:30.649Z,89.94
2022-09-04T02:16:47.672Z,90.16
2022-09-04T02:19:04.781Z,90.38
2022-09-04T02:21:21.811Z,89.83
2022-09-04T02:23:38.728Z,90.26
2022-09-04T02:25:55.750Z,90.85
2022-09-04T02:28:12.797Z,91.34
2022-09-04T02:30:29.841Z,89.48
2022-09-04T02:32:47.127Z,89.66
2022-09-04T02:35:04.975Z,91.17
2022-09-04T02:37:22.237Z,89.55
2022-09-04T02:39:40.060Z,90.57
2022-09-04T02:41:57.341Z,89.66
2022-09-04T02:44:14.375Z,89.61
2022-09-04T02:46:31.831Z,90.19
2022-09-04T02:48:49.172Z,90.58
2022-09-04T02:51:07.536Z,90.71
2022-09-04T02:53:24.806Z,89.32
2022-09-04T02:55:41.875Z,90.07
2022-09-04T02:57:58.970Z,91.82
2022-09-04T03:00:18.216Z,89.94
2022-09-04T03:02:38.136Z,89.86
2022-09-04T03:04:55.424Z,90.17
2022-09-04T03:07:12.433Z,90.16
2022-09-04T03:09:29.472Z,89.91
2022-09-04T03:11:46.637Z,90.95
2022-09-04T03:14:03.927Z,91.68
2022-09-04T03:16:20.887Z,89.74
2022-09-04T03:18:38.168Z,89.78
2022-09-04T03:20:55.106Z,89.96
2022-09-04T03:23:12.379Z,91.86
2022-09-04T03:25:29.337Z,91.25
2022-09-04T03:27:46.667Z,92.17
2022-09-04T03:30:03.571Z,91.36
2022-09-04T03:32:20.497Z,90.80
2022-09-04T03:34:37.595Z,91.35
2022-09-04T03:36:54.827Z,92.18
2022-09-04T03:39:12.088Z,92.14
2022-09-04T03:41:29.153Z,90.27
2022-09-04T03:43:46.424Z,90.38
2022-09-04T03:46:03.362Z,90.78
2022-09-04T03:48:20.421Z,91.85
2022-09-04T03:50:37.514Z,90.31
2022-09-04T03:52:54.612Z,91.67
2022-09-04T03:55:11.566Z,90.64
2022-09-04T03:57:28.866Z,90.80
2022-09-04T03:59:45.962Z,90.22
2022-09-04T04:02:02.901Z,89.83
2022-09-04T04:04:20.110Z,90.64
2022-09-04T04:06:37.378Z,89.13
2022-09-04T04:08:54.450Z,89.35
2022-09-04T04:11:11.751Z,90.52
2022-09-04T04:13:28.662Z,90.39
2022-09-04T04:15:45.764Z,90.31
2022-09-04T04:18:02.854Z,89.05
2022-09-04T04:20:20.102Z,90.30
2022-09-04T04:22:37.493Z,90.08
2022-09-04T04:24:54.832Z,90.81
2022-09-04T04:27:11.928Z,89.27
2022-09-04T04:29:29.189Z,89.49
2022-09-04T04:31:46.987Z,89.24
2022-09-04T04:34:04.393Z,89.91
2022-09-04T04:36:25.236Z,89.10
2022-09-04T04:38:42.366Z,88.98
2022-09-04T04:40:59.298Z,89.23
2022-09-04T04:43:16.610Z,89.89
2022-09-04T04:45:33.659Z,90.50
2022-09-04T04:47:50.592Z,89.58
2022-09-04T04:50:07.570Z,91.46
2022-09-04T04:52:24.603Z,89.46
2022-09-04T04:54:41.615Z,89.30
2022-09-04T04:56:58.925Z,89.08
2022-09-04T04:59:16.197Z,89.58
2022-09-04T05:01:33.189Z,90.35
2022-09-04T05:03:50.328Z,88.17
2022-09-04T05:06:07.257Z,88.32
2022-09-04T05:08:24.705Z,88.46
2022-09-04T05:10:41.802Z,89.10
2022-09-04T05:12:58.754Z,89.64
2022-09-04T05:15:15.731Z,89.16
2022-09-04T05:17:32.956Z,90.10
2022-09-04T05:19:50.937Z,88.71
2022-09-04T05:22:09.393Z,90.23
2022-09-04T05:24:26.322Z,90.18
2022-09-04T05:26:43.258Z,88.38
2022-09-04T05:29:00.520Z,90.07
2022-09-04T05:31:17.607Z,89.99
2022-09-04T05:33:35.665Z,89.93
2022-09-04T05:35:53.165Z,88.23
2022-09-04T05:38:10.849Z,90.15
2022-09-04T05:40:28.161Z,89.13
2022-09-04T05:42:45.089Z,88.61
2022-09-04T05:45:02.019Z,89.80
2022-09-04T05:47:19.053Z,89.75
2022-09-04T05:49:36.079Z,88.44
2022-09-04T05:51:53.151Z,88.89
2022-09-04T05:54:10.192Z,89.64
2022-09-04T05:56:27.220Z,88.25
2022-09-04T05:58:45.436Z,87.97
2022-09-04T06:01:03.636Z,88.15
2022-09-04T06:03:20.583Z,87.12
2022-09-04T06:05:37.945Z,88.92
2022-09-04T06:07:55.244Z,89.21
2022-09-04T06:10:12.502Z,88.23
2022-09-04T06:12:29.454Z,89.50
2022-09-04T06:14:46.353Z,88.81
2022-09-04T06:17:03.432Z,87.58
2022-09-04T06:19:20.499Z,88.43
2022-09-04T06:21:38.749Z,86.85
2022-09-04T06:23:55.779Z,86.56
2022-09-04T06:26:12.793Z,85.98
2022-09-04T06:28:30.053Z,86.29
2022-09-04T06:30:47.335Z,84.92
2022-09-04T06:33:04.444Z,87.14
2022-09-04T06:35:21.497Z,86.11
2022-09-04T06:37:38.774Z,86.22
2022-09-04T06:39:56.138Z,84.59
2022-09-04T06:42:13.683Z,84.59
2022-09-04T06:44:31.865Z,84.05
2022-09-04T06:46:48.977Z,84.13
2022-09-04T06:49:06.157Z,85.04
2022-09-04T06:51:23.393Z,84.19
2022-09-04T06:53:40.467Z,84.09
2022-09-04T06:55:57.454Z,86.21
2022-09-04T06:58:14.535Z,86.25
2022-09-04T07:00:32.870Z,84.98
2022-09-04T07:02:51.159Z,85.80
2022-09-04T07:05:09.660Z,84.63
2022-09-04T07:07:26.697Z,85.91
2022-09-04T07:09:44.684Z,85.72
2022-09-04T07:12:01.999Z,84.99
2022-09-04T07:14:19.241Z,85.28
2022-09-04T07:16:36.562Z,85.50
2022-09-04T07:18:54.412Z,84.15
2022-09-04T07:21:11.429Z,84.18
2022-09-04T07:23:28.554Z,83.44
2022-09-04T07:25:45.584Z,83.60
2022-09-04T07:28:02.601Z,83.83
2022-09-04T07:30:19.505Z,83.29
2022-09-04T07:32:36.589Z,81.54
2022-09-04T07:34:53.505Z,81.17
2022-09-04T07:37:10.449Z,82.11
2022-09-04T07:39:27.543Z,83.32
2022-09-04T07:41:44.592Z,83.10
2022-09-04T07:44:01.866Z,82.35
2022-09-04T07:46:18.944Z,81.99
2022-09-04T07:48:36.044Z,82.01
2022-09-04T07:50:53.080Z,81.10
2022-09-04T07:53:11.383Z,82.09
2022-09-04T07:55:28.523Z,81.97
2022-09-04T07:57:45.468Z,81.82
2022-09-04T08:00:02.487Z,81.21
2022-09-04T08:02:19.832Z,80.51
2022-09-04T08:04:37.227Z,81.54
2022-09-04T08:06:54.361Z,81.58
2022-09-04T08:09:11.344Z,81.01
2022-09-04T08:11:28.261Z,81.01
2022-09-04T08:13:45.632Z,81.33
2022-09-04T08:16:02.984Z,81.08
2022-09-04T08:18:20.139Z,80.64
2022-09-04T08:20:37.454Z,81.34
2022-09-04T08:22:54.406Z,80.60
2022-09-04T08:25:13.322Z,80.29
2022-09-04T08:27:30.624Z,80.02
2022-09-04T08:29:47.855Z,80.12
2022-09-04T08:32:04.823Z,80.20
2022-09-04T08:34:21.798Z,79.47
2022-09-04T08:36:39.127Z,79.30
2022-09-04T08:38:56.420Z,79.21
2022-09-04T08:41:13.466Z,78.99
2022-09-04T08:43:30.484Z,77.09
2022-09-04T08:45:47.899Z,76.66
2022-09-04T08:48:05.223Z,77.67
2022-09-04T08:50:22.166Z,78.21
2022-09-04T08:52:39.889Z,77.71
2022-09-04T08:54:57.206Z,77.31
2022-09-04T08:57:14.554Z,77.83
2022-09-04T08:59:31.494Z,77.33
2022-09-04T09:01:48.720Z,73.87
2022-09-04T09:04:06.054Z,74.22
2022-09-04T09:06:23.148Z,74.05
2022-09-04T09:08:40.158Z,72.74
2022-09-04T09:10:57.223Z,73.56
2022-09-04T09:13:14.199Z,74.26
2022-09-04T09:15:31.202Z,73.35
2022-09-04T09:17:48.240Z,72.35
2022-09-04T09:20:05.439Z,70.15
2022-09-04T09:22:22.547Z,70.49
2022-09-04T09:24:39.819Z,68.67
2022-09-04T09:26:56.806Z,69.47
2022-09-04T09:29:14.144Z,68.94
2022-09-04T09:31:31.484Z,68.17
2022-09-04T09:33:49.600Z,67.89
2022-09-04T09:36:06.943Z,68.07
2022-09-04T09:38:25.220Z,66.79
2022-09-04T09:40:42.161Z,66.51
2022-09-04T09:42:59.074Z,66.45
2022-09-04T09:45:16.445Z,65.83
2022-09-04T09:47:33.680Z,64.65
2022-09-04T09:49:51.917Z,64.39
2022-09-04T09:52:08.872Z,63.03
2022-09-04T09:54:26.156Z,63.12
2022-09-04T09:56:43.121Z,61.78
2022-09-04T09:59:11.023Z,61.41
2022-09-04T10:01:28.081Z,61.59
2022-09-04T10:03:45.048Z,60.45
2022-09-04T10:06:02.479Z,60.59
2022-09-04T10:08:35.439Z,60.68
2022-09-04T10:10:53.388Z,58.73
2022-09-04T10:13:10.396Z,58.74
2022-09-04T10:15:27.366Z,58.56
2022-09-04T10:17:44.692Z,59.29
2022-09-04T10:20:01.658Z,58.89
2022-09-04T10:22:18.552Z,58.75
2022-09-04T10:24:35.587Z,57.50
2022-09-04T10:26:53.534Z,56.36
2022-09-04T10:29:10.609Z,56.29
2022-09-04T10:31:27.688Z,56.68
2022-09-04T10:33:44.716Z,57.82
2022-09-04T10:36:01.652Z,57.28
2022-09-04T10:38:18.626Z,57.89
2022-09-04T10:40:38.432Z,56.98
2022-09-04T10:42:57.914Z,55.40
2022-09-04T10:45:14.966Z,55.98
2022-09-04T10:47:32.042Z,56.28
2022-09-04T10:49:50.005Z,56.44
2022-09-04T10:52:07.123Z,56.41
2022-09-04T10:54:24.426Z,57.30
2022-09-04T10:56:41.410Z,59.19
2022-09-04T10:58:58.758Z,59.01
2022-09-04T11:01:15.881Z,59.34
2022-09-04T11:03:33.044Z,60.59
2022-09-04T11:05:50.161Z,60.75
2022-09-04T11:08:07.500Z,61.83
2022-09-04T11:10:24.775Z,60.83
2022-09-04T11:12:41.787Z,59.96
2022-09-04T11:14:58.756Z,58.88
2022-09-04T11:17:15.718Z,57.16
2022-09-04T11:19:33.382Z,56.64
2022-09-04T11:21:50.338Z,54.61
2022-09-04T11:24:07.435Z,54.29
2022-09-04T11:26:26.056Z,54.29
2022-09-04T11:28:43.330Z,54.29
2022-09-04T11:31:00.614Z,54.69
2022-09-04T11:33:18.030Z,56.01
2022-09-04T11:35:35.106Z,56.29
2022-09-04T11:37:55.801Z,55.92
2022-09-04T11:40:14.624Z,57.29
2022-09-04T11:42:31.917Z,56.60
2022-09-04T11:44:48.989Z,57.63
2022-09-04T11:47:06.021Z,56.50
2022-09-04T11:49:23.635Z,56.66
2022-09-04T11:51:40.658Z,57.48
2022-09-04T11:53:58.005Z,55.93
2022-09-04T11:56:16.005Z,55.67
2022-09-04T11:58:34.427Z,55.29
2022-09-04T12:00:51.839Z,53.99
2022-09-04T12:03:08.891Z,52.43
2022-09-04T12:05:27.096Z,51.53
2022-09-04T12:07:44.408Z,51.17
2022-09-04T12:10:01.538Z,52.04
2022-09-04T12:12:18.774Z,51.96
2022-09-04T12:14:36.043Z,52.28
2022-09-04T12:16:53.135Z,52.48
2022-09-04T12:19:11.157Z,52.92
2022-09-04T12:21:29.105Z,53.55
2022-09-04T12:23:46.040Z,53.30
2022-09-04T12:26:02.906Z,53.25
2022-09-04T12:28:19.922Z,52.33
2022-09-04T12:30:37.367Z,53.06
2022-09-04T12:32:55.627Z,52.58
2022-09-04T12:35:12.893Z,52.05
2022-09-04T12:37:32.001Z,52.99
2022-09-04T12:39:49.082Z,52.38
2022-09-04T12:42:06.151Z,53.29
2022-09-04T12:44:23.266Z,52.97
2022-09-04T12:46:40.405Z,52.52
2022-09-04T12:48:57.440Z,52.91
2022-09-04T12:51:14.685Z,52.38
2022-09-04T12:53:32.792Z,53.21
2022-09-04T12:55:49.844Z,51.98
2022-09-04T12:58:07.134Z,52.30
2022-09-04T13:00:24.177Z,52.68
2022-09-04T13:02:41.275Z,52.63
2022-09-04T13:04:58.674Z,51.12
2022-09-04T13:07:16.510Z,50.83
2022-09-04T13:09:33.939Z,49.83
2022-09-04T13:11:51.217Z,48.90
2022-09-04T13:14:08.161Z,46.88
2022-09-04T13:16:26.308Z,47.09
2022-09-04T13:18:43.593Z,46.17
2022-09-04T13:21:01.660Z,46.43
2022-09-04T13:23:18.674Z,45.69
2022-09-04T13:25:36.027Z,45.84
2022-09-04T13:27:53.019Z,45.10
2022-09-04T13:30:10.327Z,44.93
2022-09-04T13:32:27.596Z,44.62
2022-09-04T13:34:44.592Z,45.46
2022-09-04T13:37:01.680Z,45.69
2022-09-04T13:39:18.727Z,45.94
2022-09-04T13:41:36.044Z,44.42
2022-09-04T13:43:53.109Z,46.52
2022-09-04T13:46:10.121Z,47.06
2022-09-04T13:48:27.424Z,46.51
2022-09-04T13:50:44.388Z,46.88
2022-09-04T13:53:01.370Z,47.37
2022-09-04T13:55:18.646Z,47.33
2022-09-04T13:57:35.628Z,47.50
2022-09-04T13:59:52.952Z,47.38
2022-09-04T14:02:11.012Z,46.95
2022-09-04T14:04:28.281Z,48.34
2022-09-04T14:06:45.413Z,47.10
2022-09-04T14:09:05.493Z,47.52
2022-09-04T14:11:23.236Z,47.42
2022-09-04T14:13:40.274Z,48.81
2022-09-04T14:15:57.656Z,48.94
2022-09-04T14:18:14.616Z,48.54
2022-09-04T14:20:31.638Z,47.31
2022-09-04T14:22:48.631Z,46.92
2022-09-04T14:25:11.863Z,47.31
2022-09-04T14:27:31.649Z,45.63
2022-09-04T14:29:48.879Z,47.54
2022-09-04T14:32:06.188Z,47.44
2022-09-04T14:34:23.358Z,47.96
2022-09-04T14:36:40.675Z,48.28
2022-09-04T14:38:57.641Z,48.36
2022-09-04T14:41:14.920Z,49.58
2022-09-04T14:43:33.201Z,49.47
2022-09-04T14:45:50.468Z,50.88
2022-09-04T14:48:07.441Z,52.56
2022-09-04T14:50:24.436Z,54.05
2022-09-04T14:52:41.744Z,54.83
2022-09-04T14:54:58.673Z,55.28
2022-09-04T14:57:15.923Z,57.15
2022-09-04T14:59:33.229Z,57.98
2022-09-04T15:01:50.379Z,57.74
2022-09-04T15:04:08.874Z,58.04
2022-09-04T15:06:29.048Z,58.81
2022-09-04T15:08:48.471Z,59.21
2022-09-04T15:11:05.436Z,58.95
2022-09-04T15:13:23.766Z,59.67
2022-09-04T15:15:41.947Z,58.91
2022-09-04T15:17:59.249Z,58.13
2022-09-04T15:20:17.385Z,57.42
2022-09-04T15:22:35.632Z,57.31
2022-09-04T15:24:52.735Z,55.72
2022-09-04T15:27:09.640Z,55.05
2022-09-04T15:29:26.775Z,52.96
2022-09-04T15:31:43.917Z,50.78
2022-09-04T15:34:01.209Z,48.28
2022-09-04T15:36:18.165Z,46.95
2022-09-04T15:38:35.476Z,48.50
2022-09-04T15:41:15.089Z,48.42
2022-09-04T15:43:31.545Z,47.75
2022-09-04T15:45:48.588Z,46.57
2022-09-04T15:48:06.675Z,47.68
2022-09-04T15:50:23.680Z,48.22
2022-09-04T15:52:41.001Z,45.59
2022-09-04T15:54:58.225Z,46.03
2022-09-04T15:57:15.194Z,45.78
2022-09-04T15:59:33.456Z,46.29
2022-09-04T16:01:50.756Z,46.30
2022-09-04T16:04:07.740Z,45.41
2022-09-04T16:06:24.774Z,44.97
2022-09-04T16:08:41.833Z,45.14
2022-09-04T16:10:59.897Z,44.19
2022-09-04T16:13:18.369Z,44.90
2022-09-04T16:15:35.365Z,46.75
2022-09-04T16:17:52.408Z,46.31
2022-09-04T16:20:09.414Z,45.40
2022-09-04T16:22:27.505Z,45.54
2022-09-04T16:24:44.429Z,45.66
2022-09-04T16:27:01.736Z,45.47
2022-09-04T16:29:21.207Z,45.37
2022-09-04T16:31:41.341Z,45.03
2022-09-04T16:33:59.692Z,46.53
2022-09-04T16:36:17.668Z,48.30
2022-09-04T16:38:37.034Z,50.01
2022-09-04T16:40:54.113Z,51.32
2022-09-04T16:43:11.434Z,53.22
2022-09-04T16:45:28.374Z,52.32
2022-09-04T16:47:46.280Z,52.18
2022-09-04T16:50:03.292Z,52.07
2022-09-04T16:52:20.597Z,52.50
2022-09-04T16:54:38.557Z,52.53
2022-09-04T16:57:12.097Z,53.40
2022-09-04T16:59:30.578Z,55.29
2022-09-04T17:01:47.767Z,54.56
2022-09-04T17:04:12.685Z,54.74
2022-09-04T17:06:30.992Z,57.08
2022-09-04T17:08:48.305Z,56.77
2022-09-04T17:11:05.366Z,58.20
2022-09-04T17:13:27.959Z,58.53
2022-09-04T17:15:53.340Z,60.65
2022-09-04T17:18:11.318Z,60.59
2022-09-04T17:20:50.295Z,61.46
2022-09-04T17:29:03.251Z,61.67
2022-09-04T17:29:11.309Z,62.26
2022-09-04T17:29:15.595Z,63.52
2022-09-04T17:30:56.461Z,65.16
2022-09-04T17:40:36.139Z,64.89
2022-09-04T17:40:38.802Z,65.10
2022-09-04T17:40:48.847Z,65.13
2022-09-04T17:41:38.243Z,66.32
2022-09-04T17:43:41.567Z,65.82
2022-09-04T17:45:58.586Z,68.27
2022-09-04T17:48:16.891Z,67.31
2022-09-04T17:50:33.979Z,66.62
2022-09-04T17:52:51.062Z,68.23
2022-09-04T17:55:08.106Z,66.76
2022-09-04T17:57:26.102Z,67.70
2022-09-04T17:59:45.697Z,67.73
2022-09-04T18:02:03.095Z,68.90
2022-09-04T18:04:22.396Z,68.30
2022-09-04T18:06:40.043Z,69.26
2022-09-04T18:08:57.343Z,68.02
2022-09-04T18:11:14.321Z,68.52
2022-09-04T18:13:37.906Z,69.66
2022-09-04T18:15:55.427Z,68.98
2022-09-04T18:18:12.657Z,69.33
2022-09-04T18:20:29.757Z,70.44
2022-09-04T18:22:46.835Z,71.13
2022-09-04T18:25:16.229Z,70.45
2022-09-04T18:27:34.748Z,71.40
2022-09-04T18:32:01.859Z,71.07
2022-09-04T18:37:09.264Z,71.41
2022-09-04T18:37:20.593Z,71.09
2022-09-04T18:37:47.433Z,71.55
2022-09-04T18:40:04.891Z,72.02
2022-09-04T18:50:20.282Z,72.34
2022-09-04T18:50:48.965Z,72.05
2022-09-04T18:50:50.872Z,72.13
2022-09-04T18:50:53.391Z,72.20
2022-09-04T18:52:51.161Z,72.49
2022-09-04T18:55:08.126Z,72.62
2022-09-04T18:57:25.071Z,73.03
2022-09-04T18:59:42.139Z,73.95
2022-09-04T19:01:59.700Z,73.67
2022-09-04T19:04:18.991Z,73.37
2022-09-04T19:06:37.605Z,74.04
2022-09-04T19:08:54.565Z,74.17
2022-09-04T19:11:20.541Z,74.25
2022-09-04T19:13:38.509Z,73.72
2022-09-04T19:15:55.774Z,73.98
2022-09-04T19:18:14.130Z,73.75
2022-09-04T19:20:31.325Z,73.72
2022-09-04T19:22:53.992Z,75.01
2022-09-04T19:25:12.927Z,75.46
2022-09-04T19:27:30.013Z,74.17
2022-09-04T19:29:47.165Z,74.65
2022-09-04T19:32:04.206Z,75.20
2022-09-04T19:34:21.387Z,74.57
2022-09-04T19:36:38.649Z,75.70
2022-09-04T19:46:00.511Z,74.94
2022-09-04T19:46:02.918Z,74.73
2022-09-04T19:46:08.504Z,75.59
2022-09-04T19:46:48.850Z,74.80
2022-09-04T19:50:57.094Z,75.83
2022-09-04T19:53:32.178Z,77.31
2022-09-04T19:54:20.410Z,77.07
2022-09-04T19:57:32.973Z,75.51
2022-09-04T19:59:14.786Z,77.86
2022-09-04T20:01:33.232Z,77.99
2022-09-04T20:03:50.589Z,77.63
2022-09-04T20:06:20.049Z,76.00
2022-09-04T20:08:38.553Z,77.04
2022-09-04T20:10:55.849Z,75.78
2022-09-04T20:13:13.118Z,77.41
2022-09-04T20:15:31.883Z,76.11
2022-09-04T20:17:50.153Z,76.51
2022-09-04T20:20:07.123Z,78.62
2022-09-04T20:22:24.001Z,76.71
2022-09-04T20:24:42.228Z,77.35
2022-09-04T20:27:20.876Z,76.81
2022-09-04T20:29:37.927Z,78.62
2022-09-04T20:31:55.015Z,78.37
2022-09-04T20:34:12.336Z,78.60
2022-09-04T20:36:30.305Z,78.11
2022-09-04T20:38:47.376Z,77.43
2022-09-04T20:41:04.471Z,78.16
2022-09-04T20:43:21.848Z,79.01
2022-09-04T20:48:17.363Z,79.03
2022-09-04T20:52:49.773Z,79.09
2022-09-04T20:52:56.685Z,79.32
2022-09-04T20:53:30.821Z,78.80
2022-09-04T20:55:47.999Z,78.51
2022-09-04T21:03:06.681Z,78.51
2022-09-04T21:03:20.214Z,78.41
2022-09-04T21:03:34.754Z,78.91
2022-09-04T21:05:56.361Z,78.52
2022-09-04T21:08:24.402Z,78.72
2022-09-04T21:10:44.141Z,78.66
2022-09-04T21:13:22.783Z,79.77
2022-09-04T21:15:39.006Z,79.12
2022-09-04T21:17:56.052Z,79.26
2022-09-04T21:20:13.027Z,79.80
2022-09-04T21:22:32.870Z,80.05
2022-09-04T21:24:50.667Z,79.92
2022-09-04T21:27:07.993Z,80.49
2022-09-04T21:29:26.322Z,80.67
2022-09-04T21:31:44.354Z,80.86
2022-09-04T21:34:02.174Z,80.37
2022-09-04T21:36:26.025Z,80.48
2022-09-04T21:38:44.292Z,80.86
2022-09-04T21:41:02.575Z,80.36
2022-09-04T21:43:19.719Z,80.50
2022-09-04T21:45:36.758Z,80.33
2022-09-04T21:47:53.926Z,80.99
2022-09-04T21:50:13.206Z,80.44
2022-09-04T21:52:30.698Z,80.67
2022-09-04T21:57:17.626Z,80.85
2022-09-04T22:02:32.208Z,80.58
2022-09-04T22:02:37.796Z,80.81
2022-09-04T22:02:59.636Z,80.61
2022-09-04T22:05:17.337Z,80.87
2022-09-04T22:12:24.401Z,80.87
2022-09-04T22:13:30.217Z,81.06
2022-09-04T22:13:41.992Z,81.39
2022-09-04T22:15:29.312Z,80.48
2022-09-04T22:17:46.558Z,81.02
2022-09-04T22:20:04.117Z,80.82
2022-09-04T22:22:21.442Z,80.45
2022-09-04T22:24:41.067Z,80.45
2022-09-04T22:26:58.545Z,81.68
2022-09-04T22:29:15.601Z,81.71
2022-09-04T22:31:32.975Z,80.95
2022-09-04T22:34:15.040Z,80.96
2022-09-04T22:36:26.957Z,81.06
2022-09-04T22:38:44.940Z,80.92
2022-09-04T22:41:02.831Z,81.64
2022-09-04T22:43:20.176Z,81.87
2022-09-04T22:45:37.240Z,80.76
2022-09-04T22:47:54.271Z,81.97
2022-09-04T22:50:11.539Z,82.14
2022-09-04T22:52:28.787Z,81.28
2022-09-04T22:54:45.741Z,81.10
2022-09-04T22:57:02.632Z,81.16
2022-09-04T22:59:26.344Z,81.21
2022-09-04T23:01:44.842Z,82.29
2022-09-04T23:04:02.007Z,81.25
2022-09-04T23:08:05.759Z,82.77
2022-09-04T23:13:49.616Z,82.44
2022-09-04T23:13:50.645Z,82.58
2022-09-04T23:14:14.652Z,83.05
2022-09-04T23:16:34.803Z,83.18
2022-09-04T23:22:56.578Z,82.74
2022-09-04T23:26:32.772Z,82.30
2022-09-04T23:26:44.828Z,82.63
2022-09-04T23:27:01.490Z,82.85
2022-09-04T23:29:19.365Z,82.76
2022-09-04T23:31:38.828Z,83.07
2022-09-04T23:33:56.122Z,82.59
2022-09-04T23:36:13.451Z,82.54
2022-09-04T23:38:30.490Z,83.33
2022-09-04T23:40:47.797Z,81.69
2022-09-04T23:43:07.459Z,81.69
2022-09-04T23:45:24.733Z,82.77
2022-09-04T23:47:47.967Z,81.85
2022-09-04T23:50:06.444Z,83.02
2022-09-04T23:52:27.103Z,82.19
2022-09-04T23:54:44.346Z,81.64
2022-09-04T23:57:01.275Z,81.53
2022-09-04T23:59:33.859Z,82.64
